Time;durP1;ratioP1;P1;durP2;ratioP2;P2;SDS_P1;SDS_P2;PMS_P1;PMS_P2;Temp;Humidity;BMP_temperature;BMP_pressure;BME280_temperature;BME280_humidity;BME280_pressure;Samples;Min_cycle;Max_cycle;Signal;HPM_P1;HPM_P2
2022/12/14 00:00:28;;;;;;;29.77;11.88;;;;;;;;;;5049577;28;20037;-56
2022/12/14 00:02:54;;;;;;;25.65;11.40;;;;;;;;;;5035599;28;20070;-54
2022/12/14 00:05:20;;;;;;;22.67;10.90;;;;;;;;;;5049213;28;20693;-55
2022/12/14 00:07:46;;;;;;;26.42;11.63;;;;;;;;;;5045921;28;20029;-55
2022/12/14 00:10:11;;;;;;;26.05;10.52;;;;;;;;;;5045800;28;20382;-54
2022/12/14 00:12:37;;;;;;;27.77;11.25;;;;;;;;;;5042689;28;20113;-55
2022/12/14 00:15:02;;;;;;;22.35;10.05;;;;;;;;;;5051361;28;20024;-56
2022/12/14 00:17:28;;;;;;;24.30;10.10;;;;;;;;;;5033762;28;20065;-56
2022/12/14 00:19:53;;;;;;;22.90;10.48;;;;;;;;;;5047840;28;20036;-53
2022/12/14 00:22:19;;;;;;;20.65;9.80;;;;;;;;;;5041028;28;20754;-56
2022/12/14 00:24:44;;;;;;;24.63;10.20;;;;;;;;;;5050674;28;20033;-60
2022/12/14 00:27:10;;;;;;;23.50;9.95;;;;;;;;;;5049493;28;20033;-53
2022/12/14 00:29:35;;;;;;;21.65;10.07;;;;;;;;;;5032384;28;20058;-54
2022/12/14 00:32:00;;;;;;;21.25;9.82;;;;;;;;;;5051909;28;20029;-55
2022/12/14 00:34:26;;;;;;;23.38;9.60;;;;;;;;;;5052625;28;20535;-58
2022/12/14 00:36:51;;;;;;;23.02;9.85;;;;;;;;;;5034999;28;20055;-58
2022/12/14 00:39:17;;;;;;;23.67;10.25;;;;;;;;;;5053187;28;20398;-57
2022/12/14 00:41:42;;;;;;;19.55;9.43;;;;;;;;;;5028446;28;20389;-60
2022/12/14 00:44:08;;;;;;;21.77;9.90;;;;;;;;;;5042499;28;20489;-57
2022/12/14 00:46:33;;;;;;;19.58;8.98;;;;;;;;;;5050633;28;20137;-54
2022/12/14 00:48:58;;;;;;;21.77;9.57;;;;;;;;;;5048039;28;20134;-54
2022/12/14 00:51:24;;;;;;;21.67;9.63;;;;;;;;;;5047656;28;20024;-55
2022/12/14 00:53:49;;;;;;;21.85;9.40;;;;;;;;;;5040736;28;20025;-53
2022/12/14 00:56:15;;;;;;;24.67;10.10;;;;;;;;;;5052617;28;20048;-54
2022/12/14 00:58:40;;;;;;;19.42;9.07;;;;;;;;;;5032310;28;20098;-54
2022/12/14 01:01:11;;;;;;;21.27;9.35;;;;;;;;;;5043130;28;20045;-55
2022/12/14 01:03:36;;;;;;;18.88;8.80;;;;;;;;;;5050413;28;20444;-58
2022/12/14 01:06:02;;;;;;;19.15;8.73;;;;;;;;;;5036389;28;20071;-54
2022/12/14 01:08:34;;;;;;;21.48;9.13;;;;;;;;;;5044029;28;20036;-55
2022/12/14 01:11:03;;;;;;;20.20;9.27;;;;;;;;;;5030534;28;20393;-53
2022/12/14 01:13:28;;;;;;;20.77;9.50;;;;;;;;;;5036265;28;20045;-53
2022/12/14 01:15:53;;;;;;;21.10;9.23;;;;;;;;;;5045613;28;20108;-55
2022/12/14 01:18:19;;;;;;;18.90;9.20;;;;;;;;;;5043747;28;20452;-57
2022/12/14 01:20:44;;;;;;;19.60;9.48;;;;;;;;;;5040029;28;20040;-61
2022/12/14 01:23:09;;;;;;;21.42;8.82;;;;;;;;;;5040538;28;20029;-56
2022/12/14 01:25:35;;;;;;;19.90;8.75;;;;;;;;;;5025618;28;20029;-53
2022/12/14 01:28:00;;;;;;;17.65;7.97;;;;;;;;;;5037112;28;20036;-55
2022/12/14 01:30:26;;;;;;;21.55;9.80;;;;;;;;;;5043829;28;20032;-56
2022/12/14 01:32:51;;;;;;;20.73;8.63;;;;;;;;;;5044130;28;20104;-55
2022/12/14 01:35:16;;;;;;;18.10;7.60;;;;;;;;;;5039303;28;20030;-58
2022/12/14 01:37:42;;;;;;;19.48;7.55;;;;;;;;;;5047984;28;20029;-57
2022/12/14 01:40:08;;;;;;;19.02;7.75;;;;;;;;;;5036198;28;20505;-57
2022/12/14 01:42:35;;;;;;;19.52;7.80;;;;;;;;;;5040700;28;20034;-55
2022/12/14 01:45:00;;;;;;;20.42;8.30;;;;;;;;;;5048560;28;20501;-57
2022/12/14 01:47:43;;;;;;;16.88;7.50;;;;;;;;;;5031739;28;20116;-56
2022/12/14 01:50:25;;;;;;;21.10;7.47;;;;;;;;;;5047177;28;20073;-60
2022/12/14 01:52:53;;;;;;;18.77;7.75;;;;;;;;;;5042491;28;20076;-55
2022/12/14 01:55:29;;;;;;;21.40;7.88;;;;;;;;;;5016925;28;20032;-54
2022/12/14 01:58:23;;;;;;;19.75;7.57;;;;;;;;;;5048425;28;20033;-54
2022/12/14 02:00:53;;;;;;;16.92;7.47;;;;;;;;;;5041900;28;22016;-58
2022/12/14 02:03:24;;;;;;;18.83;8.10;;;;;;;;;;5042437;28;20040;-56
2022/12/14 02:05:51;;;;;;;;;;;;;;;;;;5033168;28;20037;-59
2022/12/14 02:08:18;;;;;;;16.55;6.72;;;;;;;;;;5035117;28;20269;-55
2022/12/14 02:10:46;;;;;;;19.70;7.63;;;;;;;;;;5034306;28;20485;-59
2022/12/14 02:13:31;;;;;;;21.63;7.57;;;;;;;;;;5035394;28;20025;-58
2022/12/14 02:15:56;;;;;;;18.60;7.72;;;;;;;;;;5049038;28;20029;-57
2022/12/14 02:18:25;;;;;;;22.10;7.15;;;;;;;;;;5048651;28;20377;-54
2022/12/14 02:21:00;;;;;;;15.90;6.95;;;;;;;;;;5048126;28;20401;-61
2022/12/14 02:23:53;;;;;;;17.65;6.95;;;;;;;;;;5033118;28;20462;-57
2022/12/14 02:26:30;;;;;;;16.75;7.03;;;;;;;;;;5048155;28;20052;-59
2022/12/14 02:29:33;;;;;;;17.58;7.20;;;;;;;;;;5047495;28;20056;-58
2022/12/14 02:32:14;;;;;;;17.85;7.50;;;;;;;;;;5033023;28;20251;-58
2022/12/14 02:34:58;;;;;;;19.98;7.50;;;;;;;;;;5038699;28;20041;-56
2022/12/14 02:37:51;;;;;;;17.08;6.95;;;;;;;;;;5044832;28;20439;-59
2022/12/14 02:40:35;;;;;;;19.30;7.35;;;;;;;;;;5040205;28;20401;-60
2022/12/14 02:43:25;;;;;;;16.52;6.68;;;;;;;;;;5045344;28;20420;-56
2022/12/14 02:46:13;;;;;;;19.48;7.85;;;;;;;;;;5051133;28;20547;-59
2022/12/14 02:48:46;;;;;;;16.08;7.03;;;;;;;;;;5026335;28;20045;-53
2022/12/14 02:51:24;;;;;;;14.75;7.07;;;;;;;;;;5036828;28;20090;-58
2022/12/14 02:54:02;;;;;;;18.98;7.25;;;;;;;;;;5018168;28;20040;-60
2022/12/14 02:56:38;;;;;;;20.38;7.97;;;;;;;;;;5051301;28;20135;-57
2022/12/14 02:59:07;;;;;;;15.82;6.82;;;;;;;;;;5014172;28;20051;-57
2022/12/14 03:01:34;;;;;;;16.92;7.22;;;;;;;;;;5036593;28;20036;-53
2022/12/14 03:03:59;;;;;;;19.20;7.35;;;;;;;;;;5046860;28;20045;-55
2022/12/14 03:06:25;;;;;;;19.48;7.65;;;;;;;;;;5045747;28;20028;-58
2022/12/14 03:08:57;;;;;;;16.90;6.90;;;;;;;;;;5033786;28;20036;-60
2022/12/14 03:11:43;;;;;;;18.38;7.38;;;;;;;;;;5047262;28;20033;-56
2022/12/14 03:14:22;;;;;;;19.52;7.70;;;;;;;;;;5048409;28;20409;-53
2022/12/14 03:16:51;;;;;;;17.95;7.15;;;;;;;;;;5048842;28;20152;-53
2022/12/14 03:19:22;;;;;;;17.25;7.53;;;;;;;;;;5022424;28;20128;-55
2022/12/14 03:21:56;;;;;;;16.10;6.97;;;;;;;;;;5051044;28;20048;-54
2022/12/14 03:24:33;;;;;;;17.73;7.10;;;;;;;;;;5020885;28;20033;-56
2022/12/14 03:26:58;;;;;;;18.70;7.70;;;;;;;;;;5053222;28;20044;-58
2022/12/14 03:29:28;;;;;;;17.65;7.30;;;;;;;;;;5051019;28;20033;-55
2022/12/14 03:31:55;;;;;;;16.40;7.30;;;;;;;;;;5042138;28;20462;-59
2022/12/14 03:34:27;;;;;;;18.67;7.45;;;;;;;;;;5038895;28;20112;-57
2022/12/14 03:36:58;;;;;;;17.20;7.65;;;;;;;;;;5047357;28;20135;-61
2022/12/14 03:39:33;;;;;;;19.38;6.95;;;;;;;;;;5045634;28;20033;-56
2022/12/14 03:42:17;;;;;;;17.17;7.50;;;;;;;;;;5051921;28;20063;-54
2022/12/14 03:45:07;;;;;;;17.08;6.97;;;;;;;;;;5050738;28;20060;-54
2022/12/14 03:47:42;;;;;;;19.73;6.70;;;;;;;;;;5021897;28;20115;-56
2022/12/14 03:50:18;;;;;;;18.38;6.60;;;;;;;;;;5049803;28;20095;-55
2022/12/14 03:53:11;;;;;;;15.82;6.95;;;;;;;;;;5035785;28;20052;-56
2022/12/14 03:55:55;;;;;;;13.00;6.38;;;;;;;;;;5036727;28;21061;-54
2022/12/14 03:58:57;;;;;;;14.02;6.47;;;;;;;;;;5046707;28;20521;-55
2022/12/14 04:01:45;;;;;;;19.25;7.28;;;;;;;;;;5019602;28;20068;-55
2022/12/14 04:04:18;;;;;;;18.42;7.30;;;;;;;;;;5033564;28;20029;-54
2022/12/14 04:06:50;;;;;;;17.23;7.18;;;;;;;;;;5048348;28;20032;-57
2022/12/14 04:09:34;;;;;;;18.02;6.93;;;;;;;;;;5044384;28;20029;-54
2022/12/14 04:20:51;;;;;;;16.90;7.45;;;;;;;;;;5045966;28;20103;-57
2022/12/14 04:26:03;;;;;;;14.45;6.82;;;;;;;;;;5031386;28;20025;-56
2022/12/14 04:26:13;;;;;;;16.70;6.57;;;;;;;;;;5032921;28;20061;-57
2022/12/14 04:31:31;;;;;;;17.55;7.07;;;;;;;;;;5036995;28;20051;-55
2022/12/14 04:34:01;;;;;;;15.30;6.90;;;;;;;;;;5051449;28;20102;-60
2022/12/14 04:36:41;;;;;;;16.25;6.95;;;;;;;;;;5034646;28;20117;-56
2022/12/14 04:39:18;;;;;;;14.13;6.60;;;;;;;;;;5050447;28;20032;-56
2022/12/14 04:41:48;;;;;;;16.25;6.60;;;;;;;;;;5019356;28;20077;-56
2022/12/14 04:44:23;;;;;;;23.38;6.47;;;;;;;;;;5051629;28;20082;-56
2022/12/14 04:46:51;;;;;;;14.90;6.90;;;;;;;;;;5025471;28;20033;-56
2022/12/14 04:49:22;;;;;;;15.52;7.63;;;;;;;;;;5023378;28;20044;-53
2022/12/14 04:52:11;;;;;;;14.65;6.50;;;;;;;;;;5033446;28;20029;-56
2022/12/14 04:54:44;;;;;;;14.65;6.55;;;;;;;;;;5015499;28;20079;-60
2022/12/14 04:57:23;;;;;;;14.88;6.22;;;;;;;;;;5048824;28;20056;-56
2022/12/14 04:59:49;;;;;;;14.80;6.60;;;;;;;;;;5053265;28;20037;-56
2022/12/14 05:02:37;;;;;;;14.13;6.50;;;;;;;;;;5050514;28;20044;-60
2022/12/14 05:05:24;;;;;;;13.27;6.15;;;;;;;;;;5044213;28;20048;-58
2022/12/14 05:08:26;;;;;;;19.33;7.07;;;;;;;;;;5015615;28;20038;-57
2022/12/14 05:11:00;;;;;;;12.88;6.10;;;;;;;;;;5033114;28;20060;-54
2022/12/14 05:13:34;;;;;;;13.23;6.50;;;;;;;;;;5038358;28;20036;-56
2022/12/14 05:16:00;;;;;;;16.20;6.95;;;;;;;;;;5053061;28;20470;-61
2022/12/14 05:18:25;;;;;;;14.43;6.82;;;;;;;;;;5052761;28;20036;-58
2022/12/14 05:20:50;;;;;;;15.23;6.28;;;;;;;;;;5052819;28;20079;-56
2022/12/14 05:23:16;;;;;;;17.20;7.15;;;;;;;;;;5050707;28;20108;-56
2022/12/14 05:25:42;;;;;;;14.80;6.70;;;;;;;;;;5051595;28;20466;-57
2022/12/14 05:28:09;;;;;;;16.17;6.93;;;;;;;;;;5052003;28;20056;-57
2022/12/14 05:30:36;;;;;;;17.42;6.95;;;;;;;;;;5052751;28;20036;-56
2022/12/14 05:33:01;;;;;;;14.13;6.10;;;;;;;;;;5051386;28;20094;-56
2022/12/14 05:35:26;;;;;;;16.10;7.13;;;;;;;;;;5050790;28;20033;-54
2022/12/14 05:37:52;;;;;;;15.32;6.55;;;;;;;;;;5052588;28;20454;-55
2022/12/14 05:40:17;;;;;;;14.48;6.88;;;;;;;;;;5034146;28;20033;-57
2022/12/14 05:42:43;;;;;;;16.20;6.60;;;;;;;;;;5052581;28;20029;-56
2022/12/14 05:45:10;;;;;;;15.30;6.22;;;;;;;;;;5050143;28;20037;-56
2022/12/14 05:47:36;;;;;;;16.80;6.78;;;;;;;;;;5052584;28;20029;-54
2022/12/14 05:50:01;;;;;;;15.90;6.43;;;;;;;;;;5034109;28;20040;-59
2022/12/14 05:52:26;;;;;;;14.68;6.43;;;;;;;;;;5034106;28;20037;-55
2022/12/14 05:54:52;;;;;;;15.57;6.70;;;;;;;;;;5051059;28;20112;-56
2022/12/14 05:57:18;;;;;;;15.88;6.68;;;;;;;;;;5051551;28;20049;-52
2022/12/14 05:59:43;;;;;;;18.42;7.05;;;;;;;;;;5052324;28;20029;-54
2022/12/14 06:02:09;;;;;;;14.13;6.45;;;;;;;;;;5051150;28;20035;-56
2022/12/14 06:04:34;;;;;;;14.77;6.70;;;;;;;;;;5049188;28;20059;-55
2022/12/14 06:06:59;;;;;;;16.58;6.90;;;;;;;;;;5052490;28;20469;-57
2022/12/14 06:09:25;;;;;;;14.77;6.63;;;;;;;;;;5051129;28;20021;-55
2022/12/14 06:11:50;;;;;;;15.77;7.15;;;;;;;;;;5051673;28;20570;-55
2022/12/14 06:14:16;;;;;;;15.77;7.38;;;;;;;;;;5048851;28;20496;-53
2022/12/14 06:16:43;;;;;;;16.58;7.13;;;;;;;;;;5052059;28;20104;-54
2022/12/14 06:19:10;;;;;;;14.98;6.70;;;;;;;;;;5051210;28;20068;-56
2022/12/14 06:21:38;;;;;;;14.70;6.85;;;;;;;;;;5051736;28;20033;-56
2022/12/14 06:24:05;;;;;;;15.35;7.05;;;;;;;;;;5050418;28;20029;-58
2022/12/14 06:26:32;;;;;;;16.98;7.75;;;;;;;;;;5051931;28;20489;-53
2022/12/14 06:28:57;;;;;;;18.20;7.32;;;;;;;;;;5051573;28;20385;-56
2022/12/14 06:31:28;;;;;;;18.17;7.72;;;;;;;;;;5050671;28;20025;-54
2022/12/14 06:33:55;;;;;;;21.25;7.53;;;;;;;;;;5050693;28;20056;-56
2022/12/14 06:36:23;;;;;;;16.65;7.32;;;;;;;;;;5039143;28;20045;-56
2022/12/14 06:38:53;;;;;;;16.73;7.07;;;;;;;;;;5031749;28;20033;-57
2022/12/14 06:41:19;;;;;;;17.42;7.55;;;;;;;;;;5029528;28;20497;-57
2022/12/14 06:43:45;;;;;;;15.32;6.53;;;;;;;;;;5040185;28;20029;-52
2022/12/14 06:46:13;;;;;;;19.33;7.53;;;;;;;;;;5050845;28;20390;-57
2022/12/14 06:48:39;;;;;;;20.80;7.82;;;;;;;;;;5051291;28;20033;-56
2022/12/14 06:51:05;;;;;;;14.38;6.78;;;;;;;;;;5049874;28;20043;-59
2022/12/14 06:53:32;;;;;;;16.23;6.97;;;;;;;;;;5050289;28;20064;-55
2022/12/14 06:56:08;;;;;;;17.33;7.70;;;;;;;;;;5033089;28;20132;-56
2022/12/14 06:58:34;;;;;;;16.05;7.13;;;;;;;;;;5051293;28;20428;-56
2022/12/14 07:01:07;;;;;;;17.73;7.22;;;;;;;;;;5051389;28;20037;-54
2022/12/14 07:03:34;;;;;;;15.82;7.35;;;;;;;;;;5049811;28;20117;-56
2022/12/14 07:06:01;;;;;;;16.85;7.30;;;;;;;;;;5033434;28;20048;-57
2022/12/14 07:08:28;;;;;;;16.40;7.38;;;;;;;;;;5050944;28;20025;-57
2022/12/14 07:10:54;;;;;;;16.55;6.93;;;;;;;;;;5051563;28;20025;-57
2022/12/14 07:13:20;;;;;;;14.07;7.07;;;;;;;;;;5048901;28;20036;-57
2022/12/14 07:15:53;;;;;;;17.50;8.20;;;;;;;;;;5051191;28;20052;-57
2022/12/14 07:18:19;;;;;;;16.33;7.22;;;;;;;;;;5049685;28;20045;-58
2022/12/14 07:21:03;;;;;;;15.75;7.28;;;;;;;;;;5051226;28;20464;-55
2022/12/14 07:23:30;;;;;;;17.08;7.10;;;;;;;;;;5050486;28;20036;-57
2022/12/14 07:26:01;;;;;;;16.08;6.90;;;;;;;;;;5051402;28;20040;-55
2022/12/14 07:28:27;;;;;;;14.88;7.38;;;;;;;;;;5049336;28;20025;-58
2022/12/14 07:30:56;;;;;;;17.85;7.43;;;;;;;;;;5051130;28;20040;-58
2022/12/14 07:33:22;;;;;;;13.60;6.90;;;;;;;;;;5050614;28;20120;-56
2022/12/14 07:35:48;;;;;;;15.57;7.05;;;;;;;;;;5044451;28;20032;-56
2022/12/14 07:38:13;;;;;;;14.18;6.68;;;;;;;;;;5033929;28;20393;-57
2022/12/14 07:40:38;;;;;;;17.15;6.85;;;;;;;;;;5051417;28;20104;-56
2022/12/14 07:43:04;;;;;;;16.15;7.75;;;;;;;;;;5033164;28;20033;-56
2022/12/14 07:45:29;;;;;;;16.85;7.85;;;;;;;;;;5050368;28;20438;-56
2022/12/14 07:47:55;;;;;;;16.20;7.90;;;;;;;;;;5049977;28;20026;-58
2022/12/14 07:50:21;;;;;;;17.70;7.97;;;;;;;;;;5027552;28;20359;-57
2022/12/14 07:52:46;;;;;;;16.75;7.60;;;;;;;;;;5030887;28;20030;-56
2022/12/14 07:55:11;;;;;;;16.60;7.97;;;;;;;;;;5029967;28;20026;-54
2022/12/14 07:57:37;;;;;;;17.88;7.93;;;;;;;;;;5049270;28;20108;-54
2022/12/14 08:00:03;;;;;;;17.67;7.68;;;;;;;;;;5049757;28;20040;-56
2022/12/14 08:02:28;;;;;;;14.57;7.53;;;;;;;;;;5053422;28;20435;-57
2022/12/14 08:04:54;;;;;;;14.80;6.95;;;;;;;;;;5054110;28;20029;-56
2022/12/14 08:07:19;;;;;;;18.38;7.90;;;;;;;;;;5038205;28;20036;-57
2022/12/14 08:09:44;;;;;;;14.82;7.47;;;;;;;;;;5035470;28;20037;-56
2022/12/14 08:12:10;;;;;;;18.60;8.48;;;;;;;;;;5053642;28;20025;-61
2022/12/14 08:14:35;;;;;;;17.88;8.25;;;;;;;;;;5053939;28;20043;-53
2022/12/14 08:17:00;;;;;;;17.40;7.78;;;;;;;;;;5053966;28;20033;-57
2022/12/14 08:19:26;;;;;;;18.70;8.05;;;;;;;;;;5050946;28;20131;-53
2022/12/14 08:21:51;;;;;;;17.13;7.93;;;;;;;;;;5053724;28;20083;-56
2022/12/14 08:24:16;;;;;;;20.25;8.35;;;;;;;;;;5053181;28;20516;-56
2022/12/14 08:26:42;;;;;;;18.17;8.15;;;;;;;;;;5054302;28;20043;-54
2022/12/14 08:29:08;;;;;;;16.42;8.23;;;;;;;;;;5034990;28;20029;-53
2022/12/14 08:31:33;;;;;;;18.63;8.05;;;;;;;;;;5053121;28;20102;-55
2022/12/14 08:34:00;;;;;;;18.15;8.13;;;;;;;;;;5054341;28;20033;-57
2022/12/14 08:36:28;;;;;;;19.40;8.40;;;;;;;;;;5053418;28;20025;-56
2022/12/14 08:38:56;;;;;;;16.52;7.88;;;;;;;;;;5052607;28;20033;-56
2022/12/14 08:41:22;;;;;;;16.70;8.40;;;;;;;;;;5034900;28;20037;-55
2022/12/14 08:43:49;;;;;;;17.70;8.68;;;;;;;;;;5053488;28;20036;-55
2022/12/14 08:46:15;;;;;;;20.02;8.60;;;;;;;;;;5053199;28;20111;-56
2022/12/14 08:48:40;;;;;;;15.80;8.02;;;;;;;;;;5052016;28;20104;-58
2022/12/14 08:51:08;;;;;;;19.08;8.95;;;;;;;;;;5052778;28;20040;-57
2022/12/14 08:53:35;;;;;;;18.45;8.23;;;;;;;;;;5019530;28;20029;-56
2022/12/14 08:56:09;;;;;;;17.58;9.07;;;;;;;;;;5033244;28;20406;-54
2022/12/14 08:58:35;;;;;;;17.10;8.63;;;;;;;;;;5040385;28;20465;-55
2022/12/14 09:01:12;;;;;;;17.60;8.70;;;;;;;;;;5053385;28;20036;-56
2022/12/14 09:03:39;;;;;;;17.05;8.55;;;;;;;;;;5053117;28;20033;-53
2022/12/14 09:06:07;;;;;;;15.43;8.05;;;;;;;;;;5048212;28;20037;-56
2022/12/14 09:08:33;;;;;;;17.42;8.27;;;;;;;;;;5036455;28;20032;-57
2022/12/14 09:10:59;;;;;;;17.25;8.40;;;;;;;;;;5052391;28;20025;-53
2022/12/14 09:13:25;;;;;;;19.13;8.55;;;;;;;;;;5051380;28;20025;-56
2022/12/14 09:16:02;;;;;;;17.23;8.88;;;;;;;;;;5052838;28;20099;-59
2022/12/14 09:18:28;;;;;;;17.25;7.70;;;;;;;;;;5051062;28;20036;-58
2022/12/14 09:20:54;;;;;;;16.50;8.30;;;;;;;;;;5053286;28;20051;-56
2022/12/14 09:23:24;;;;;;;18.08;8.13;;;;;;;;;;5034092;28;20079;-57
2022/12/14 09:26:06;;;;;;;17.27;8.50;;;;;;;;;;5052946;28;20546;-55
2022/12/14 09:28:34;;;;;;;15.73;7.70;;;;;;;;;;5049209;28;20400;-56
2022/12/14 09:31:21;;;;;;;16.08;7.78;;;;;;;;;;5052864;28;20037;-57
2022/12/14 09:33:46;;;;;;;15.85;7.78;;;;;;;;;;5052719;28;20132;-56
2022/12/14 09:36:12;;;;;;;17.00;8.05;;;;;;;;;;5052973;28;20196;-56
2022/12/14 09:38:38;;;;;;;16.88;8.07;;;;;;;;;;5050217;28;20032;-53
2022/12/14 09:41:06;;;;;;;22.02;9.23;;;;;;;;;;5051721;28;20041;-53
2022/12/14 09:43:35;;;;;;;18.42;8.55;;;;;;;;;;5051663;28;20029;-57
2022/12/14 09:46:20;;;;;;;16.67;8.23;;;;;;;;;;5052527;28;20028;-56
2022/12/14 09:48:47;;;;;;;17.48;8.30;;;;;;;;;;5040521;28;20045;-53
2022/12/14 09:51:15;;;;;;;16.50;8.15;;;;;;;;;;5052351;28;20037;-55
2022/12/14 09:53:43;;;;;;;17.10;7.88;;;;;;;;;;5051910;28;20047;-54
2022/12/14 09:56:14;;;;;;;21.85;9.15;;;;;;;;;;5050796;28;20040;-57
2022/12/14 09:58:49;;;;;;;18.80;8.93;;;;;;;;;;5052109;28;20033;-55
2022/12/14 10:01:23;;;;;;;17.48;8.57;;;;;;;;;;5034699;28;20037;-59
2022/12/14 10:04:07;;;;;;;15.52;8.05;;;;;;;;;;5052489;28;20505;-58
2022/12/14 10:06:50;;;;;;;18.67;8.55;;;;;;;;;;5045070;28;20481;-54
2022/12/14 10:09:37;;;;;;;19.65;8.90;;;;;;;;;;5032053;28;20034;-60
2022/12/14 10:12:33;;;;;;;18.40;8.80;;;;;;;;;;5030609;28;20036;-55
2022/12/14 10:15:28;;;;;;;15.90;8.10;;;;;;;;;;5032303;28;20065;-56
2022/12/14 10:18:00;;;;;;;15.77;8.43;;;;;;;;;;5047580;28;20045;-56
2022/12/14 10:21:05;;;;;;;18.88;8.68;;;;;;;;;;5051415;28;20036;-53
2022/12/14 10:23:32;;;;;;;20.95;8.77;;;;;;;;;;5033614;28;20068;-55
2022/12/14 10:26:06;;;;;;;21.20;9.35;;;;;;;;;;5051076;28;20022;-56
2022/12/14 10:28:51;;;;;;;19.38;9.35;;;;;;;;;;5051226;28;20100;-57
2022/12/14 10:31:32;;;;;;;16.40;8.90;;;;;;;;;;5051515;28;20377;-60
2022/12/14 10:34:14;;;;;;;22.65;9.55;;;;;;;;;;5051036;28;20469;-56
2022/12/14 10:36:51;;;;;;;21.10;9.60;;;;;;;;;;5033403;28;20481;-53
2022/12/14 10:39:54;;;;;;;17.92;9.02;;;;;;;;;;5033980;28;20391;-60
2022/12/14 10:42:47;;;;;;;21.55;9.05;;;;;;;;;;5038340;28;20500;-58
2022/12/14 10:45:33;;;;;;;18.60;9.05;;;;;;;;;;5051875;28;20036;-54
2022/12/14 10:48:29;;;;;;;20.13;10.05;;;;;;;;;;5051949;28;20040;-54
2022/12/14 10:51:09;;;;;;;22.95;10.00;;;;;;;;;;5051742;28;20079;-54
2022/12/14 10:54:01;;;;;;;21.00;10.38;;;;;;;;;;5049203;28;20036;-59
2022/12/14 10:56:33;;;;;;;20.08;9.80;;;;;;;;;;5022149;28;20072;-57
2022/12/14 10:59:20;;;;;;;23.83;10.45;;;;;;;;;;5033710;28;20480;-53
2022/12/14 11:01:56;;;;;;;24.00;10.02;;;;;;;;;;5032140;28;20438;-57
2022/12/14 11:04:29;;;;;;;21.95;10.40;;;;;;;;;;5050689;28;20037;-60
2022/12/14 11:06:57;;;;;;;21.40;10.82;;;;;;;;;;5049938;28;20055;-60
2022/12/14 11:09:23;;;;;;;22.48;10.57;;;;;;;;;;5032974;28;20362;-55
2022/12/14 11:12:07;;;;;;;20.20;10.50;;;;;;;;;;5033676;28;20520;-54
2022/12/14 11:14:35;;;;;;;24.05;11.10;;;;;;;;;;5051133;28;20032;-56
2022/12/14 11:17:00;;;;;;;23.88;11.18;;;;;;;;;;5035039;28;20116;-55
2022/12/14 11:19:29;;;;;;;21.65;10.35;;;;;;;;;;5013034;28;20109;-53
2022/12/14 11:22:13;;;;;;;21.55;10.77;;;;;;;;;;5031296;28;20083;-55
2022/12/14 11:24:44;;;;;;;22.90;10.63;;;;;;;;;;5030738;28;20458;-53
2022/12/14 11:27:10;;;;;;;;;;;;;;;;;;5051074;28;20029;-54
2022/12/14 11:29:38;;;;;;;22.02;9.85;;;;;;;;;;5032406;28;19909;-53
2022/12/14 11:32:05;;;;;;;22.05;10.65;;;;;;;;;;5044432;28;20033;-54
2022/12/14 11:34:34;;;;;;;23.55;11.13;;;;;;;;;;5032531;28;20029;-55
2022/12/14 11:37:30;;;;;;;21.98;10.82;;;;;;;;;;5055039;28;20550;-55
2022/12/14 11:40:02;;;;;;;20.92;10.13;;;;;;;;;;5024729;28;20052;-55
2022/12/14 11:42:28;;;;;;;24.85;10.43;;;;;;;;;;5052288;28;20025;-56
2022/12/14 11:45:14;;;;;;;22.02;10.68;;;;;;;;;;5036992;28;20083;-55
2022/12/14 11:47:39;;;;;;;21.20;10.20;;;;;;;;;;5053669;28;20108;-56
2022/12/14 11:50:22;;;;;;;20.00;9.60;;;;;;;;;;5054973;28;20112;-57
2022/12/14 11:52:48;;;;;;;22.23;10.73;;;;;;;;;;5054283;28;20031;-56
2022/12/14 11:55:17;;;;;;;25.92;10.52;;;;;;;;;;5036048;28;20042;-57
2022/12/14 11:58:02;;;;;;;23.65;11.20;;;;;;;;;;5018683;28;20643;-56
2022/12/14 12:00:37;;;;;;;20.90;10.25;;;;;;;;;;5034126;28;20037;-57
2022/12/14 12:03:14;;;;;;;22.45;9.98;;;;;;;;;;5033391;28;20330;-52
2022/12/14 12:05:42;;;;;;;23.65;11.15;;;;;;;;;;5034470;28;20120;-54
2022/12/14 12:08:25;;;;;;;22.23;10.25;;;;;;;;;;5037533;28;20122;-57
2022/12/14 12:10:54;;;;;;;20.60;9.80;;;;;;;;;;5036904;28;20029;-56
2022/12/14 12:13:34;;;;;;;19.85;10.35;;;;;;;;;;5054331;28;20036;-53
2022/12/14 12:16:24;;;;;;;23.77;11.48;;;;;;;;;;5055041;28;20069;-53
2022/12/14 12:18:59;;;;;;;22.65;10.95;;;;;;;;;;5036092;28;20039;-58
2022/12/14 12:21:29;;;;;;;25.95;11.23;;;;;;;;;;5036389;28;20115;-60
2022/12/14 12:24:20;;;;;;;27.58;12.27;;;;;;;;;;5053208;28;20055;-56
2022/12/14 12:26:48;;;;;;;24.20;11.73;;;;;;;;;;5053335;28;20218;-58
2022/12/14 12:29:46;;;;;;;21.42;11.50;;;;;;;;;;5054297;28;20021;-54
2022/12/14 12:32:17;;;;;;;24.67;11.43;;;;;;;;;;5050271;28;20037;-54
2022/12/14 12:34:54;;;;;;;21.83;11.27;;;;;;;;;;5051459;28;20033;-55
2022/12/14 12:37:31;;;;;;;19.67;10.82;;;;;;;;;;5054263;28;20037;-53
2022/12/14 12:40:05;;;;;;;20.17;10.82;;;;;;;;;;5054611;28;20031;-53
2022/12/14 12:42:36;;;;;;;20.52;10.93;;;;;;;;;;5053217;28;20040;-54
2022/12/14 12:45:25;;;;;;;20.17;10.10;;;;;;;;;;5054525;28;20033;-56
2022/12/14 12:48:05;;;;;;;20.95;10.68;;;;;;;;;;5051364;28;20033;-55
2022/12/14 12:50:36;;;;;;;20.42;10.93;;;;;;;;;;5053152;28;20063;-57
2022/12/14 12:53:22;;;;;;;19.45;11.05;;;;;;;;;;5054605;28;20056;-55
2022/12/14 12:56:13;;;;;;;21.48;10.23;;;;;;;;;;5053463;28;20686;-56
2022/12/14 12:58:39;;;;;;;;;;;;;;;;;;5033172;28;20143;-55
2022/12/14 13:01:27;;;;;;;16.92;9.27;;;;;;;;;;5033754;28;20260;-56
2022/12/14 13:03:57;;;;;;;18.40;9.73;;;;;;;;;;5033923;28;20539;-54
2022/12/14 13:06:30;;;;;;;20.00;9.75;;;;;;;;;;5053099;28;20063;-55
2022/12/14 13:08:59;;;;;;;18.70;10.20;;;;;;;;;;5041203;28;20034;-57
2022/12/14 13:11:31;;;;;;;21.55;10.18;;;;;;;;;;5033259;28;20037;-56
2022/12/14 13:14:27;;;;;;;20.55;10.35;;;;;;;;;;5033485;28;20029;-58
2022/12/14 13:16:54;;;;;;;20.23;10.10;;;;;;;;;;5019198;28;20056;-53
2022/12/14 13:19:42;;;;;;;22.40;11.32;;;;;;;;;;5053528;28;20038;-55
2022/12/14 13:22:13;;;;;;;20.15;10.77;;;;;;;;;;5053120;28;20052;-54
2022/12/14 13:24:38;;;;;;;19.80;10.95;;;;;;;;;;5052012;28;20029;-55
2022/12/14 13:27:27;;;;;;;17.73;10.60;;;;;;;;;;5052605;28;20040;-56
2022/12/14 13:30:03;;;;;;;21.52;10.45;;;;;;;;;;5052228;28;20029;-57
2022/12/14 13:32:54;;;;;;;22.27;10.25;;;;;;;;;;5049320;28;20052;-60
2022/12/14 13:35:22;;;;;;;19.58;10.05;;;;;;;;;;5052760;28;20116;-56
2022/12/14 13:38:01;;;;;;;16.80;10.07;;;;;;;;;;5051458;28;20555;-55
2022/12/14 13:40:52;;;;;;;17.55;9.25;;;;;;;;;;5030784;28;20107;-55
2022/12/14 13:43:50;;;;;;;17.17;9.93;;;;;;;;;;5032779;28;20040;-57
2022/12/14 13:46:22;;;;;;;16.00;9.02;;;;;;;;;;5032964;28;20067;-56
2022/12/14 13:48:52;;;;;;;17.23;9.63;;;;;;;;;;5032174;28;20037;-57
2022/12/14 13:51:29;;;;;;;16.15;9.18;;;;;;;;;;5032383;28;20029;-58
2022/12/14 13:53:58;;;;;;;16.55;9.23;;;;;;;;;;5035526;28;20533;-54
2022/12/14 13:56:33;;;;;;;17.02;9.73;;;;;;;;;;5052480;28;20049;-54
2022/12/14 13:59:00;;;;;;;14.63;8.55;;;;;;;;;;5051361;28;20078;-57
2022/12/14 14:01:44;;;;;;;16.27;9.48;;;;;;;;;;5051964;28;20112;-57
2022/12/14 14:04:10;;;;;;;17.60;9.35;;;;;;;;;;5052247;28;20033;-54
2022/12/14 14:06:45;;;;;;;20.60;11.65;;;;;;;;;;5051459;28;20044;-54
2022/12/14 14:09:27;;;;;;;20.65;10.27;;;;;;;;;;5029188;28;20359;-54
2022/12/14 14:12:18;;;;;;;16.15;9.60;;;;;;;;;;5030971;28;20272;-59
2022/12/14 14:15:00;;;;;;;19.35;9.75;;;;;;;;;;5030120;28;20041;-58
2022/12/14 14:17:40;;;;;;;21.02;9.93;;;;;;;;;;5031978;28;20065;-57
2022/12/14 14:20:31;;;;;;;19.70;9.93;;;;;;;;;;5041692;28;20040;-56
2022/12/14 14:23:15;;;;;;;;;;;;;;;;;;5033058;28;20036;-56
2022/12/14 14:26:08;;;;;;;18.00;9.15;;;;;;;;;;5033272;28;19913;-58
2022/12/14 14:28:35;;;;;;;16.45;8.57;;;;;;;;;;5051014;28;20382;-59
2022/12/14 14:31:01;;;;;;;18.08;9.05;;;;;;;;;;5043188;28;20603;-56
2022/12/14 14:33:47;;;;;;;16.55;8.57;;;;;;;;;;5031853;28;20034;-58
2022/12/14 14:36:15;;;;;;;14.77;7.97;;;;;;;;;;5048049;28;20028;-58
2022/12/14 14:38:41;;;;;;;15.15;8.15;;;;;;;;;;5050527;28;20067;-58
2022/12/14 14:41:21;;;;;;;18.02;9.15;;;;;;;;;;5051725;28;20079;-57
2022/12/14 14:43:54;;;;;;;16.33;8.23;;;;;;;;;;5050697;28;20025;-55
2022/12/14 14:46:30;;;;;;;15.57;7.95;;;;;;;;;;5051284;28;20581;-55
2022/12/14 14:48:56;;;;;;;14.55;7.25;;;;;;;;;;5048932;28;20044;-53
2022/12/14 14:51:27;;;;;;;16.42;8.15;;;;;;;;;;5050255;28;20033;-57
2022/12/14 14:54:14;;;;;;;15.77;7.70;;;;;;;;;;5050596;28;20108;-55
2022/12/14 14:56:42;;;;;;;15.20;8.05;;;;;;;;;;5050530;28;20094;-52
2022/12/14 14:59:13;;;;;;;17.67;8.05;;;;;;;;;;5051503;28;20033;-56
2022/12/14 15:01:52;;;;;;;15.27;8.18;;;;;;;;;;5050426;28;20032;-52
2022/12/14 15:04:21;;;;;;;16.25;7.95;;;;;;;;;;5050621;28;20029;-54
2022/12/14 15:06:49;;;;;;;15.05;8.20;;;;;;;;;;5031313;28;20052;-52
2022/12/14 15:09:25;;;;;;;15.55;8.38;;;;;;;;;;5038035;28;20030;-55
2022/12/14 15:11:54;;;;;;;17.08;8.27;;;;;;;;;;5033366;28;20478;-56